sensor_id;sensor_type;location;lat;lon;timestamp;P1;durP1;ratioP1;P2;durP2;ratioP2
5167;SDS011;2603;48.918;8.980;2023-11-19T00:00:30;5.73;;;3.47;;
5167;SDS011;2603;48.918;8.980;2023-11-19T00:02:56;6.60;;;3.83;;
5167;SDS011;2603;48.918;8.980;2023-11-19T00:05:23;9.77;;;5.10;;
5167;SDS011;2603;48.918;8.980;2023-11-19T00:07:49;5.80;;;4.33;;
5167;SDS011;2603;48.918;8.980;2023-11-19T00:10:17;7.93;;;5.33;;
5167;SDS011;2603;48.918;8.980;2023-11-19T00:12:45;8.13;;;4.00;;
5167;SDS011;2603;48.918;8.980;2023-11-19T00:15:13;6.67;;;4.10;;
5167;SDS011;2603;48.918;8.980;2023-11-19T00:17:40;31.47;;;15.50;;
5167;SDS011;2603;48.918;8.980;2023-11-19T00:20:10;9.30;;;5.53;;
5167;SDS011;2603;48.918;8.980;2023-11-19T00:22:37;8.27;;;4.23;;
5167;SDS011;2603;48.918;8.980;2023-11-19T00:25:04;6.00;;;3.47;;
5167;SDS011;2603;48.918;8.980;2023-11-19T00:27:33;4.90;;;3.30;;
5167;SDS011;2603;48.918;8.980;2023-11-19T00:30:00;5.93;;;3.20;;
5167;SDS011;2603;48.918;8.980;2023-11-19T00:32:30;5.53;;;3.10;;
5167;SDS011;2603;48.918;8.980;2023-11-19T00:34:57;4.20;;;2.70;;
5167;SDS011;2603;48.918;8.980;2023-11-19T00:37:23;5.27;;;3.00;;
5167;SDS011;2603;48.918;8.980;2023-11-19T00:39:50;5.57;;;2.97;;
5167;SDS011;2603;48.918;8.980;2023-11-19T00:42:17;5.83;;;2.60;;
5167;SDS011;2603;48.918;8.980;2023-11-19T00:44:45;5.43;;;2.77;;
5167;SDS011;2603;48.918;8.980;2023-11-19T00:47:12;5.03;;;3.07;;
5167;SDS011;2603;48.918;8.980;2023-11-19T00:49:39;5.90;;;3.40;;
5167;SDS011;2603;48.918;8.980;2023-11-19T00:52:05;8.87;;;3.13;;
5167;SDS011;2603;48.918;8.980;2023-11-19T00:54:32;6.20;;;3.20;;
5167;SDS011;2603;48.918;8.980;2023-11-19T00:56:59;7.10;;;3.40;;
5167;SDS011;2603;48.918;8.980;2023-11-19T00:59:26;10.07;;;3.47;;
5167;SDS011;2603;48.918;8.980;2023-11-19T01:01:55;5.03;;;3.33;;
5167;SDS011;2603;48.918;8.980;2023-11-19T01:04:22;5.63;;;3.10;;
5167;SDS011;2603;48.918;8.980;2023-11-19T01:06:50;5.37;;;3.40;;
5167;SDS011;2603;48.918;8.980;2023-11-19T01:09:16;5.50;;;3.50;;
5167;SDS011;2603;48.918;8.980;2023-11-19T01:11:43;5.07;;;3.13;;
5167;SDS011;2603;48.918;8.980;2023-11-19T01:14:10;4.73;;;2.93;;
5167;SDS011;2603;48.918;8.980;2023-11-19T01:16:37;5.90;;;3.17;;
5167;SDS011;2603;48.918;8.980;2023-11-19T01:19:05;5.00;;;3.13;;
5167;SDS011;2603;48.918;8.980;2023-11-19T01:21:31;5.57;;;3.10;;
5167;SDS011;2603;48.918;8.980;2023-11-19T01:23:58;6.93;;;4.13;;
5167;SDS011;2603;48.918;8.980;2023-11-19T01:26:26;7.30;;;3.70;;
5167;SDS011;2603;48.918;8.980;2023-11-19T01:28:52;6.13;;;3.93;;
5167;SDS011;2603;48.918;8.980;2023-11-19T01:31:19;8.80;;;4.13;;
5167;SDS011;2603;48.918;8.980;2023-11-19T01:33:46;4.50;;;3.37;;
5167;SDS011;2603;48.918;8.980;2023-11-19T01:36:14;3.90;;;3.20;;
5167;SDS011;2603;48.918;8.980;2023-11-19T01:38:41;9.03;;;3.80;;
5167;SDS011;2603;48.918;8.980;2023-11-19T01:41:08;5.43;;;3.13;;
5167;SDS011;2603;48.918;8.980;2023-11-19T01:43:36;5.10;;;3.60;;
5167;SDS011;2603;48.918;8.980;2023-11-19T01:46:04;11.97;;;4.77;;
5167;SDS011;2603;48.918;8.980;2023-11-19T01:48:31;8.30;;;4.30;;
5167;SDS011;2603;48.918;8.980;2023-11-19T01:50:59;9.10;;;4.37;;
5167;SDS011;2603;48.918;8.980;2023-11-19T01:53:27;8.07;;;4.40;;
5167;SDS011;2603;48.918;8.980;2023-11-19T01:55:55;8.10;;;3.97;;
5167;SDS011;2603;48.918;8.980;2023-11-19T01:58:23;6.37;;;3.90;;
5167;SDS011;2603;48.918;8.980;2023-11-19T02:00:49;6.13;;;3.40;;
5167;SDS011;2603;48.918;8.980;2023-11-19T02:03:16;6.37;;;4.30;;
5167;SDS011;2603;48.918;8.980;2023-11-19T02:05:44;5.87;;;3.60;;
5167;SDS011;2603;48.918;8.980;2023-11-19T02:08:12;5.63;;;3.83;;
5167;SDS011;2603;48.918;8.980;2023-11-19T02:10:40;5.50;;;3.70;;
5167;SDS011;2603;48.918;8.980;2023-11-19T02:13:08;6.60;;;4.27;;
5167;SDS011;2603;48.918;8.980;2023-11-19T02:15:35;6.27;;;3.63;;
5167;SDS011;2603;48.918;8.980;2023-11-19T02:18:17;9.60;;;6.97;;
5167;SDS011;2603;48.918;8.980;2023-11-19T02:20:47;9.13;;;6.10;;
5167;SDS011;2603;48.918;8.980;2023-11-19T02:23:15;13.77;;;8.20;;
5167;SDS011;2603;48.918;8.980;2023-11-19T02:25:44;8.27;;;4.53;;
5167;SDS011;2603;48.918;8.980;2023-11-19T02:28:16;8.57;;;4.43;;
5167;SDS011;2603;48.918;8.980;2023-11-19T02:30:43;7.53;;;5.00;;
5167;SDS011;2603;48.918;8.980;2023-11-19T02:33:10;6.03;;;4.60;;
5167;SDS011;2603;48.918;8.980;2023-11-19T02:35:38;6.40;;;4.43;;
5167;SDS011;2603;48.918;8.980;2023-11-19T02:38:05;6.07;;;4.30;;
5167;SDS011;2603;48.918;8.980;2023-11-19T02:40:32;12.57;;;6.67;;
5167;SDS011;2603;48.918;8.980;2023-11-19T02:42:59;9.73;;;6.00;;
5167;SDS011;2603;48.918;8.980;2023-11-19T02:45:28;15.50;;;6.40;;
5167;SDS011;2603;48.918;8.980;2023-11-19T02:47:56;11.20;;;5.83;;
5167;SDS011;2603;48.918;8.980;2023-11-19T02:50:23;8.27;;;5.37;;
5167;SDS011;2603;48.918;8.980;2023-11-19T02:52:51;9.37;;;5.33;;
5167;SDS011;2603;48.918;8.980;2023-11-19T02:55:19;7.03;;;4.57;;
5167;SDS011;2603;48.918;8.980;2023-11-19T02:57:46;7.20;;;4.10;;
5167;SDS011;2603;48.918;8.980;2023-11-19T03:00:14;6.97;;;4.50;;
5167;SDS011;2603;48.918;8.980;2023-11-19T03:02:43;6.03;;;4.10;;
5167;SDS011;2603;48.918;8.980;2023-11-19T03:05:12;8.83;;;5.10;;
5167;SDS011;2603;48.918;8.980;2023-11-19T03:07:40;11.60;;;5.20;;
5167;SDS011;2603;48.918;8.980;2023-11-19T03:10:08;7.40;;;5.60;;
5167;SDS011;2603;48.918;8.980;2023-11-19T03:12:39;11.23;;;6.67;;
5167;SDS011;2603;48.918;8.980;2023-11-19T03:15:06;11.80;;;6.63;;
5167;SDS011;2603;48.918;8.980;2023-11-19T03:17:35;11.60;;;7.53;;
5167;SDS011;2603;48.918;8.980;2023-11-19T03:20:05;10.20;;;7.40;;
5167;SDS011;2603;48.918;8.980;2023-11-19T03:22:34;11.50;;;7.63;;
5167;SDS011;2603;48.918;8.980;2023-11-19T03:25:03;10.40;;;6.80;;
5167;SDS011;2603;48.918;8.980;2023-11-19T03:27:33;11.90;;;7.50;;
5167;SDS011;2603;48.918;8.980;2023-11-19T03:30:01;11.47;;;6.97;;
5167;SDS011;2603;48.918;8.980;2023-11-19T03:32:29;9.83;;;7.17;;
5167;SDS011;2603;48.918;8.980;2023-11-19T03:34:56;11.47;;;8.07;;
5167;SDS011;2603;48.918;8.980;2023-11-19T03:37:26;9.77;;;6.40;;
5167;SDS011;2603;48.918;8.980;2023-11-19T03:39:53;10.50;;;7.30;;
5167;SDS011;2603;48.918;8.980;2023-11-19T03:42:20;11.37;;;7.70;;
5167;SDS011;2603;48.918;8.980;2023-11-19T03:44:47;10.17;;;7.60;;
5167;SDS011;2603;48.918;8.980;2023-11-19T03:47:15;10.10;;;7.27;;
5167;SDS011;2603;48.918;8.980;2023-11-19T03:49:46;12.63;;;7.70;;
5167;SDS011;2603;48.918;8.980;2023-11-19T03:52:14;13.07;;;7.93;;
5167;SDS011;2603;48.918;8.980;2023-11-19T03:54:42;9.63;;;6.03;;
5167;SDS011;2603;48.918;8.980;2023-11-19T03:57:09;12.50;;;6.97;;
5167;SDS011;2603;48.918;8.980;2023-11-19T03:59:37;13.47;;;6.60;;
5167;SDS011;2603;48.918;8.980;2023-11-19T04:02:03;10.63;;;7.20;;
5167;SDS011;2603;48.918;8.980;2023-11-19T04:04:30;9.57;;;6.40;;
5167;SDS011;2603;48.918;8.980;2023-11-19T04:06:57;8.10;;;6.10;;
5167;SDS011;2603;48.918;8.980;2023-11-19T04:09:25;11.87;;;7.70;;
5167;SDS011;2603;48.918;8.980;2023-11-19T04:11:54;11.40;;;8.13;;
5167;SDS011;2603;48.918;8.980;2023-11-19T04:14:21;14.37;;;7.53;;
5167;SDS011;2603;48.918;8.980;2023-11-19T04:16:48;12.07;;;7.50;;
5167;SDS011;2603;48.918;8.980;2023-11-19T04:19:16;10.60;;;7.20;;
5167;SDS011;2603;48.918;8.980;2023-11-19T04:21:42;10.63;;;7.50;;
5167;SDS011;2603;48.918;8.980;2023-11-19T04:24:10;10.97;;;7.67;;
5167;SDS011;2603;48.918;8.980;2023-11-19T04:26:40;10.77;;;7.97;;
5167;SDS011;2603;48.918;8.980;2023-11-19T04:29:10;12.90;;;7.53;;
5167;SDS011;2603;48.918;8.980;2023-11-19T04:31:37;10.83;;;7.37;;
5167;SDS011;2603;48.918;8.980;2023-11-19T04:34:04;10.23;;;7.70;;
5167;SDS011;2603;48.918;8.980;2023-11-19T04:36:31;10.10;;;6.83;;
5167;SDS011;2603;48.918;8.980;2023-11-19T04:38:58;13.40;;;7.43;;
5167;SDS011;2603;48.918;8.980;2023-11-19T04:41:25;9.77;;;6.80;;
5167;SDS011;2603;48.918;8.980;2023-11-19T04:43:52;10.13;;;6.50;;
5167;SDS011;2603;48.918;8.980;2023-11-19T04:46:22;8.50;;;6.50;;
5167;SDS011;2603;48.918;8.980;2023-11-19T04:48:49;9.37;;;6.87;;
5167;SDS011;2603;48.918;8.980;2023-11-19T04:51:16;13.57;;;6.03;;
5167;SDS011;2603;48.918;8.980;2023-11-19T04:53:43;4.73;;;1.60;;
5167;SDS011;2603;48.918;8.980;2023-11-19T04:56:10;2.70;;;1.53;;
5167;SDS011;2603;48.918;8.980;2023-11-19T04:58:38;2.50;;;1.30;;
5167;SDS011;2603;48.918;8.980;2023-11-19T05:01:05;3.17;;;1.00;;
5167;SDS011;2603;48.918;8.980;2023-11-19T05:03:33;1.10;;;0.50;;
5167;SDS011;2603;48.918;8.980;2023-11-19T05:06:01;3.30;;;0.60;;
5167;SDS011;2603;48.918;8.980;2023-11-19T05:08:28;1.00;;;0.40;;
5167;SDS011;2603;48.918;8.980;2023-11-19T05:10:55;2.73;;;0.50;;
5167;SDS011;2603;48.918;8.980;2023-11-19T05:13:22;2.13;;;0.60;;
5167;SDS011;2603;48.918;8.980;2023-11-19T05:15:49;1.20;;;0.60;;
5167;SDS011;2603;48.918;8.980;2023-11-19T05:18:16;1.20;;;0.60;;
5167;SDS011;2603;48.918;8.980;2023-11-19T05:20:44;1.20;;;0.50;;
5167;SDS011;2603;48.918;8.980;2023-11-19T05:23:10;1.30;;;0.50;;
5167;SDS011;2603;48.918;8.980;2023-11-19T05:25:37;1.10;;;0.50;;
5167;SDS011;2603;48.918;8.980;2023-11-19T05:28:04;3.20;;;0.73;;
5167;SDS011;2603;48.918;8.980;2023-11-19T05:30:30;1.43;;;0.70;;
5167;SDS011;2603;48.918;8.980;2023-11-19T05:32:57;2.63;;;0.50;;
5167;SDS011;2603;48.918;8.980;2023-11-19T05:35:24;1.40;;;0.50;;
5167;SDS011;2603;48.918;8.980;2023-11-19T05:37:52;2.57;;;0.70;;
5167;SDS011;2603;48.918;8.980;2023-11-19T05:40:18;1.20;;;0.50;;
5167;SDS011;2603;48.918;8.980;2023-11-19T05:42:45;1.53;;;0.80;;
5167;SDS011;2603;48.918;8.980;2023-11-19T05:45:12;3.83;;;0.70;;
5167;SDS011;2603;48.918;8.980;2023-11-19T05:47:39;1.30;;;0.60;;
5167;SDS011;2603;48.918;8.980;2023-11-19T05:50:06;1.20;;;0.60;;
5167;SDS011;2603;48.918;8.980;2023-11-19T05:52:33;3.03;;;0.50;;
5167;SDS011;2603;48.918;8.980;2023-11-19T05:55:02;2.40;;;0.50;;
5167;SDS011;2603;48.918;8.980;2023-11-19T05:57:34;4.93;;;0.80;;
5167;SDS011;2603;48.918;8.980;2023-11-19T06:00:01;4.27;;;0.90;;
5167;SDS011;2603;48.918;8.980;2023-11-19T06:02:36;1.20;;;0.60;;
5167;SDS011;2603;48.918;8.980;2023-11-19T06:05:03;1.40;;;0.60;;
5167;SDS011;2603;48.918;8.980;2023-11-19T06:07:31;1.97;;;0.63;;
5167;SDS011;2603;48.918;8.980;2023-11-19T06:09:58;1.23;;;0.50;;
5167;SDS011;2603;48.918;8.980;2023-11-19T06:12:26;1.80;;;0.60;;
5167;SDS011;2603;48.918;8.980;2023-11-19T06:14:53;1.17;;;0.50;;
5167;SDS011;2603;48.918;8.980;2023-11-19T06:17:20;1.17;;;0.60;;
5167;SDS011;2603;48.918;8.980;2023-11-19T06:19:47;1.27;;;0.50;;
5167;SDS011;2603;48.918;8.980;2023-11-19T06:22:13;1.00;;;0.50;;
5167;SDS011;2603;48.918;8.980;2023-11-19T06:24:40;1.10;;;0.50;;
5167;SDS011;2603;48.918;8.980;2023-11-19T06:27:09;5.60;;;1.50;;
5167;SDS011;2603;48.918;8.980;2023-11-19T06:29:37;1.30;;;0.73;;
5167;SDS011;2603;48.918;8.980;2023-11-19T06:32:06;1.73;;;0.50;;
5167;SDS011;2603;48.918;8.980;2023-11-19T06:34:33;1.10;;;0.40;;
5167;SDS011;2603;48.918;8.980;2023-11-19T06:36:59;1.40;;;0.60;;
5167;SDS011;2603;48.918;8.980;2023-11-19T06:39:28;1.20;;;0.50;;
5167;SDS011;2603;48.918;8.980;2023-11-19T06:41:54;1.73;;;0.60;;
5167;SDS011;2603;48.918;8.980;2023-11-19T06:44:21;2.03;;;0.53;;
5167;SDS011;2603;48.918;8.980;2023-11-19T06:46:49;1.00;;;0.40;;
5167;SDS011;2603;48.918;8.980;2023-11-19T06:49:16;2.00;;;0.63;;
5167;SDS011;2603;48.918;8.980;2023-11-19T06:51:43;1.20;;;0.50;;
5167;SDS011;2603;48.918;8.980;2023-11-19T06:54:11;1.37;;;0.50;;
5167;SDS011;2603;48.918;8.980;2023-11-19T06:56:38;1.97;;;0.60;;
5167;SDS011;2603;48.918;8.980;2023-11-19T06:59:05;2.40;;;0.57;;
5167;SDS011;2603;48.918;8.980;2023-11-19T07:01:34;1.63;;;0.70;;
5167;SDS011;2603;48.918;8.980;2023-11-19T07:04:02;1.90;;;0.70;;
5167;SDS011;2603;48.918;8.980;2023-11-19T07:06:34;1.00;;;0.40;;
5167;SDS011;2603;48.918;8.980;2023-11-19T07:09:00;1.17;;;0.40;;
5167;SDS011;2603;48.918;8.980;2023-11-19T07:11:34;1.10;;;0.50;;
5167;SDS011;2603;48.918;8.980;2023-11-19T07:14:01;1.10;;;0.50;;
5167;SDS011;2603;48.918;8.980;2023-11-19T07:16:29;1.23;;;0.53;;
5167;SDS011;2603;48.918;8.980;2023-11-19T07:18:55;3.23;;;0.63;;
5167;SDS011;2603;48.918;8.980;2023-11-19T07:21:25;1.67;;;0.53;;
5167;SDS011;2603;48.918;8.980;2023-11-19T07:23:53;1.20;;;0.50;;
5167;SDS011;2603;48.918;8.980;2023-11-19T07:26:20;2.33;;;0.60;;
5167;SDS011;2603;48.918;8.980;2023-11-19T07:28:47;1.50;;;0.60;;
5167;SDS011;2603;48.918;8.980;2023-11-19T07:31:13;1.40;;;0.50;;
5167;SDS011;2603;48.918;8.980;2023-11-19T07:33:40;6.90;;;0.90;;
5167;SDS011;2603;48.918;8.980;2023-11-19T07:36:08;6.83;;;0.77;;
5167;SDS011;2603;48.918;8.980;2023-11-19T07:38:36;1.10;;;0.40;;
5167;SDS011;2603;48.918;8.980;2023-11-19T07:41:03;1.20;;;0.40;;
5167;SDS011;2603;48.918;8.980;2023-11-19T07:43:30;1.43;;;0.53;;
5167;SDS011;2603;48.918;8.980;2023-11-19T07:45:57;1.40;;;0.60;;
5167;SDS011;2603;48.918;8.980;2023-11-19T07:48:24;4.80;;;0.70;;
5167;SDS011;2603;48.918;8.980;2023-11-19T07:50:51;3.37;;;0.60;;
5167;SDS011;2603;48.918;8.980;2023-11-19T07:53:18;1.40;;;0.80;;
5167;SDS011;2603;48.918;8.980;2023-11-19T07:55:47;1.50;;;0.60;;
5167;SDS011;2603;48.918;8.980;2023-11-19T07:58:13;2.33;;;0.60;;
5167;SDS011;2603;48.918;8.980;2023-11-19T08:00:40;1.67;;;0.77;;
5167;SDS011;2603;48.918;8.980;2023-11-19T08:03:06;4.50;;;1.07;;
5167;SDS011;2603;48.918;8.980;2023-11-19T08:05:33;1.73;;;0.87;;
5167;SDS011;2603;48.918;8.980;2023-11-19T08:08:00;1.67;;;0.60;;
5167;SDS011;2603;48.918;8.980;2023-11-19T08:10:27;1.20;;;0.50;;
5167;SDS011;2603;48.918;8.980;2023-11-19T08:12:55;2.30;;;0.60;;
5167;SDS011;2603;48.918;8.980;2023-11-19T08:15:22;6.03;;;1.40;;
5167;SDS011;2603;48.918;8.980;2023-11-19T08:17:48;6.70;;;0.77;;
5167;SDS011;2603;48.918;8.980;2023-11-19T08:20:15;1.70;;;0.50;;
5167;SDS011;2603;48.918;8.980;2023-11-19T08:22:41;2.70;;;0.60;;
5167;SDS011;2603;48.918;8.980;2023-11-19T08:25:08;1.50;;;0.60;;
5167;SDS011;2603;48.918;8.980;2023-11-19T08:27:35;1.50;;;0.50;;
5167;SDS011;2603;48.918;8.980;2023-11-19T08:30:04;2.27;;;0.70;;
5167;SDS011;2603;48.918;8.980;2023-11-19T08:32:32;2.17;;;1.03;;
5167;SDS011;2603;48.918;8.980;2023-11-19T08:34:59;3.30;;;1.47;;
5167;SDS011;2603;48.918;8.980;2023-11-19T08:37:25;1.10;;;0.50;;
5167;SDS011;2603;48.918;8.980;2023-11-19T08:39:52;1.60;;;0.63;;
5167;SDS011;2603;48.918;8.980;2023-11-19T08:42:19;1.97;;;0.60;;
5167;SDS011;2603;48.918;8.980;2023-11-19T08:44:48;4.13;;;0.70;;
5167;SDS011;2603;48.918;8.980;2023-11-19T08:47:17;2.90;;;0.70;;
5167;SDS011;2603;48.918;8.980;2023-11-19T08:49:44;1.97;;;0.80;;
5167;SDS011;2603;48.918;8.980;2023-11-19T08:52:10;2.70;;;0.70;;
5167;SDS011;2603;48.918;8.980;2023-11-19T08:54:37;2.03;;;0.60;;
5167;SDS011;2603;48.918;8.980;2023-11-19T08:57:04;2.80;;;0.70;;
5167;SDS011;2603;48.918;8.980;2023-11-19T08:59:32;2.13;;;0.70;;
5167;SDS011;2603;48.918;8.980;2023-11-19T09:01:59;1.70;;;0.50;;
5167;SDS011;2603;48.918;8.980;2023-11-19T09:04:27;2.23;;;0.60;;
5167;SDS011;2603;48.918;8.980;2023-11-19T09:06:54;2.23;;;0.50;;
5167;SDS011;2603;48.918;8.980;2023-11-19T09:09:20;1.83;;;0.60;;
5167;SDS011;2603;48.918;8.980;2023-11-19T09:11:47;1.63;;;0.80;;
5167;SDS011;2603;48.918;8.980;2023-11-19T09:14:14;1.70;;;0.73;;
5167;SDS011;2603;48.918;8.980;2023-11-19T09:16:40;1.43;;;0.60;;
5167;SDS011;2603;48.918;8.980;2023-11-19T09:19:07;2.20;;;0.73;;
5167;SDS011;2603;48.918;8.980;2023-11-19T09:21:35;5.30;;;0.80;;
5167;SDS011;2603;48.918;8.980;2023-11-19T09:24:04;3.20;;;0.67;;
5167;SDS011;2603;48.918;8.980;2023-11-19T09:26:32;3.43;;;0.60;;
5167;SDS011;2603;48.918;8.980;2023-11-19T09:28:59;1.30;;;0.50;;
5167;SDS011;2603;48.918;8.980;2023-11-19T09:31:26;5.20;;;0.60;;
5167;SDS011;2603;48.918;8.980;2023-11-19T09:33:52;2.23;;;0.73;;
5167;SDS011;2603;48.918;8.980;2023-11-19T09:36:19;1.93;;;0.63;;
5167;SDS011;2603;48.918;8.980;2023-11-19T09:38:47;2.40;;;0.60;;
5167;SDS011;2603;48.918;8.980;2023-11-19T09:41:14;3.80;;;0.80;;
5167;SDS011;2603;48.918;8.980;2023-11-19T09:43:44;2.67;;;0.73;;
5167;SDS011;2603;48.918;8.980;2023-11-19T09:46:12;6.17;;;0.43;;
5167;SDS011;2603;48.918;8.980;2023-11-19T09:48:40;3.07;;;1.63;;
5167;SDS011;2603;48.918;8.980;2023-11-19T09:51:07;3.70;;;1.47;;
5167;SDS011;2603;48.918;8.980;2023-11-19T09:53:34;3.70;;;1.10;;
5167;SDS011;2603;48.918;8.980;2023-11-19T09:56:04;1.40;;;0.60;;
5167;SDS011;2603;48.918;8.980;2023-11-19T09:58:31;4.17;;;0.50;;
5167;SDS011;2603;48.918;8.980;2023-11-19T10:00:58;5.30;;;1.40;;
5167;SDS011;2603;48.918;8.980;2023-11-19T10:03:25;2.50;;;1.10;;
5167;SDS011;2603;48.918;8.980;2023-11-19T10:05:53;3.40;;;0.93;;
5167;SDS011;2603;48.918;8.980;2023-11-19T10:08:21;5.07;;;0.80;;
5167;SDS011;2603;48.918;8.980;2023-11-19T10:10:47;3.70;;;0.50;;
5167;SDS011;2603;48.918;8.980;2023-11-19T10:13:15;1.60;;;0.53;;
5167;SDS011;2603;48.918;8.980;2023-11-19T10:15:43;2.23;;;1.10;;
5167;SDS011;2603;48.918;8.980;2023-11-19T10:18:10;2.33;;;0.90;;
5167;SDS011;2603;48.918;8.980;2023-11-19T10:20:36;2.50;;;0.50;;
5167;SDS011;2603;48.918;8.980;2023-11-19T10:23:03;1.77;;;0.60;;
5167;SDS011;2603;48.918;8.980;2023-11-19T10:25:31;1.23;;;0.40;;
5167;SDS011;2603;48.918;8.980;2023-11-19T10:27:59;1.77;;;0.60;;
5167;SDS011;2603;48.918;8.980;2023-11-19T10:30:28;2.13;;;0.70;;
5167;SDS011;2603;48.918;8.980;2023-11-19T10:33:04;1.47;;;0.53;;
5167;SDS011;2603;48.918;8.980;2023-11-19T10:35:32;1.30;;;0.50;;
5167;SDS011;2603;48.918;8.980;2023-11-19T10:37:59;3.20;;;0.53;;
5167;SDS011;2603;48.918;8.980;2023-11-19T10:40:39;2.00;;;0.60;;
5167;SDS011;2603;48.918;8.980;2023-11-19T10:43:06;2.70;;;0.77;;
5167;SDS011;2603;48.918;8.980;2023-11-19T10:45:35;3.27;;;1.03;;
5167;SDS011;2603;48.918;8.980;2023-11-19T10:48:03;1.70;;;0.53;;
5167;SDS011;2603;48.918;8.980;2023-11-19T10:50:32;1.60;;;0.50;;
5167;SDS011;2603;48.918;8.980;2023-11-19T10:52:59;2.40;;;0.60;;
5167;SDS011;2603;48.918;8.980;2023-11-19T10:55:26;1.20;;;0.50;;
5167;SDS011;2603;48.918;8.980;2023-11-19T10:57:55;3.87;;;0.73;;
5167;SDS011;2603;48.918;8.980;2023-11-19T11:00:25;6.63;;;0.60;;
5167;SDS011;2603;48.918;8.980;2023-11-19T11:02:55;5.73;;;0.60;;
5167;SDS011;2603;48.918;8.980;2023-11-19T11:05:25;2.80;;;0.60;;
5167;SDS011;2603;48.918;8.980;2023-11-19T11:07:54;3.33;;;0.70;;
5167;SDS011;2603;48.918;8.980;2023-11-19T11:10:22;3.30;;;0.80;;
5167;SDS011;2603;48.918;8.980;2023-11-19T11:12:52;2.50;;;0.60;;
5167;SDS011;2603;48.918;8.980;2023-11-19T11:15:22;3.40;;;0.87;;
5167;SDS011;2603;48.918;8.980;2023-11-19T11:17:51;4.13;;;1.77;;
5167;SDS011;2603;48.918;8.980;2023-11-19T11:20:20;1.73;;;0.80;;
5167;SDS011;2603;48.918;8.980;2023-11-19T11:22:49;3.03;;;0.87;;
5167;SDS011;2603;48.918;8.980;2023-11-19T11:25:23;3.20;;;0.90;;
5167;SDS011;2603;48.918;8.980;2023-11-19T11:27:58;3.73;;;1.10;;
5167;SDS011;2603;48.918;8.980;2023-11-19T11:30:34;3.23;;;0.90;;
5167;SDS011;2603;48.918;8.980;2023-11-19T11:33:10;3.10;;;0.80;;
5167;SDS011;2603;48.918;8.980;2023-11-19T11:35:48;3.33;;;0.80;;
5167;SDS011;2603;48.918;8.980;2023-11-19T11:38:21;3.47;;;0.80;;
5167;SDS011;2603;48.918;8.980;2023-11-19T11:43:44;2.30;;;0.60;;
5167;SDS011;2603;48.918;8.980;2023-11-19T11:46:15;1.97;;;0.70;;
5167;SDS011;2603;48.918;8.980;2023-11-19T11:49:28;2.60;;;0.80;;
5167;SDS011;2603;48.918;8.980;2023-11-19T11:52:01;1.30;;;0.47;;
5167;SDS011;2603;48.918;8.980;2023-11-19T11:54:30;1.93;;;0.67;;
5167;SDS011;2603;48.918;8.980;2023-11-19T11:57:07;3.80;;;0.60;;
5167;SDS011;2603;48.918;8.980;2023-11-19T11:59:42;4.70;;;0.73;;
5167;SDS011;2603;48.918;8.980;2023-11-19T12:02:12;6.67;;;3.40;;
5167;SDS011;2603;48.918;8.980;2023-11-19T12:04:40;4.33;;;1.27;;
5167;SDS011;2603;48.918;8.980;2023-11-19T12:07:08;2.07;;;0.70;;
5167;SDS011;2603;48.918;8.980;2023-11-19T12:09:38;1.60;;;0.50;;
5167;SDS011;2603;48.918;8.980;2023-11-19T12:12:07;1.93;;;0.50;;
5167;SDS011;2603;48.918;8.980;2023-11-19T12:20:17;3.30;;;1.73;;
5167;SDS011;2603;48.918;8.980;2023-11-19T12:22:44;3.10;;;0.70;;
5167;SDS011;2603;48.918;8.980;2023-11-19T12:25:14;2.70;;;1.00;;
5167;SDS011;2603;48.918;8.980;2023-11-19T12:27:41;2.40;;;0.63;;
5167;SDS011;2603;48.918;8.980;2023-11-19T12:30:09;4.43;;;1.10;;
5167;SDS011;2603;48.918;8.980;2023-11-19T12:32:39;1.93;;;0.70;;
5167;SDS011;2603;48.918;8.980;2023-11-19T12:35:07;1.53;;;0.80;;
5167;SDS011;2603;48.918;8.980;2023-11-19T12:37:44;1.77;;;0.80;;
5167;SDS011;2603;48.918;8.980;2023-11-19T12:40:13;3.80;;;0.90;;
5167;SDS011;2603;48.918;8.980;2023-11-19T12:42:44;5.73;;;0.73;;
5167;SDS011;2603;48.918;8.980;2023-11-19T12:45:10;4.53;;;1.03;;
5167;SDS011;2603;48.918;8.980;2023-11-19T12:47:38;1.57;;;0.73;;
5167;SDS011;2603;48.918;8.980;2023-11-19T12:50:06;1.40;;;0.70;;
5167;SDS011;2603;48.918;8.980;2023-11-19T12:52:34;1.70;;;0.57;;
5167;SDS011;2603;48.918;8.980;2023-11-19T12:55:02;4.60;;;0.70;;
5167;SDS011;2603;48.918;8.980;2023-11-19T12:57:39;2.27;;;0.97;;
5167;SDS011;2603;48.918;8.980;2023-11-19T13:00:07;2.43;;;0.67;;
5167;SDS011;2603;48.918;8.980;2023-11-19T13:02:45;4.00;;;0.80;;
5167;SDS011;2603;48.918;8.980;2023-11-19T13:05:22;2.57;;;0.77;;
5167;SDS011;2603;48.918;8.980;2023-11-19T13:07:58;1.40;;;0.80;;
5167;SDS011;2603;48.918;8.980;2023-11-19T13:10:27;1.60;;;0.60;;
5167;SDS011;2603;48.918;8.980;2023-11-19T13:13:00;7.30;;;0.97;;
5167;SDS011;2603;48.918;8.980;2023-11-19T13:15:31;2.30;;;0.60;;
5167;SDS011;2603;48.918;8.980;2023-11-19T13:17:58;1.87;;;0.80;;
5167;SDS011;2603;48.918;8.980;2023-11-19T13:20:24;1.97;;;0.80;;
5167;SDS011;2603;48.918;8.980;2023-11-19T13:22:56;2.00;;;0.77;;
5167;SDS011;2603;48.918;8.980;2023-11-19T13:25:23;4.50;;;0.90;;
5167;SDS011;2603;48.918;8.980;2023-11-19T13:27:51;3.10;;;1.23;;
5167;SDS011;2603;48.918;8.980;2023-11-19T13:30:17;1.90;;;0.80;;
5167;SDS011;2603;48.918;8.980;2023-11-19T13:32:44;3.47;;;1.00;;
5167;SDS011;2603;48.918;8.980;2023-11-19T13:35:11;2.77;;;0.80;;
5167;SDS011;2603;48.918;8.980;2023-11-19T13:37:38;5.30;;;0.83;;
5167;SDS011;2603;48.918;8.980;2023-11-19T13:40:05;5.57;;;1.00;;
5167;SDS011;2603;48.918;8.980;2023-11-19T13:42:35;3.17;;;0.90;;
5167;SDS011;2603;48.918;8.980;2023-11-19T13:45:03;3.57;;;0.80;;
5167;SDS011;2603;48.918;8.980;2023-11-19T13:47:30;6.90;;;1.30;;
5167;SDS011;2603;48.918;8.980;2023-11-19T13:49:57;3.50;;;0.70;;
5167;SDS011;2603;48.918;8.980;2023-11-19T13:52:24;1.80;;;0.67;;
5167;SDS011;2603;48.918;8.980;2023-11-19T13:54:50;5.53;;;0.80;;
5167;SDS011;2603;48.918;8.980;2023-11-19T13:57:17;2.20;;;0.70;;
5167;SDS011;2603;48.918;8.980;2023-11-19T13:59:44;2.17;;;0.70;;
5167;SDS011;2603;48.918;8.980;2023-11-19T14:02:12;2.60;;;0.73;;
5167;SDS011;2603;48.918;8.980;2023-11-19T14:04:38;1.73;;;0.70;;
5167;SDS011;2603;48.918;8.980;2023-11-19T14:07:06;2.60;;;0.90;;
5167;SDS011;2603;48.918;8.980;2023-11-19T14:09:33;4.10;;;0.70;;
5167;SDS011;2603;48.918;8.980;2023-11-19T14:11:59;2.40;;;0.70;;
5167;SDS011;2603;48.918;8.980;2023-11-19T14:14:27;1.80;;;0.60;;
5167;SDS011;2603;48.918;8.980;2023-11-19T14:16:53;1.30;;;0.60;;
5167;SDS011;2603;48.918;8.980;2023-11-19T14:19:22;2.97;;;0.80;;
5167;SDS011;2603;48.918;8.980;2023-11-19T14:21:48;1.87;;;0.90;;
5167;SDS011;2603;48.918;8.980;2023-11-19T14:24:15;2.13;;;0.67;;
5167;SDS011;2603;48.918;8.980;2023-11-19T14:26:41;1.43;;;0.50;;
5167;SDS011;2603;48.918;8.980;2023-11-19T14:29:08;3.43;;;0.90;;
5167;SDS011;2603;48.918;8.980;2023-11-19T14:31:34;2.40;;;0.80;;
5167;SDS011;2603;48.918;8.980;2023-11-19T14:34:01;4.10;;;1.07;;
5167;SDS011;2603;48.918;8.980;2023-11-19T14:36:29;3.13;;;1.33;;
5167;SDS011;2603;48.918;8.980;2023-11-19T14:38:56;1.40;;;0.70;;
5167;SDS011;2603;48.918;8.980;2023-11-19T14:41:23;2.20;;;1.10;;
5167;SDS011;2603;48.918;8.980;2023-11-19T14:43:50;2.70;;;0.60;;
5167;SDS011;2603;48.918;8.980;2023-11-19T14:46:17;3.10;;;0.70;;
5167;SDS011;2603;48.918;8.980;2023-11-19T14:48:44;1.30;;;0.60;;
5167;SDS011;2603;48.918;8.980;2023-11-19T14:51:10;4.33;;;0.97;;
5167;SDS011;2603;48.918;8.980;2023-11-19T14:53:39;2.90;;;0.93;;
5167;SDS011;2603;48.918;8.980;2023-11-19T14:56:05;5.73;;;0.70;;
5167;SDS011;2603;48.918;8.980;2023-11-19T14:58:37;3.30;;;0.73;;
5167;SDS011;2603;48.918;8.980;2023-11-19T15:01:04;2.03;;;0.67;;
5167;SDS011;2603;48.918;8.980;2023-11-19T15:03:32;1.60;;;0.80;;
5167;SDS011;2603;48.918;8.980;2023-11-19T15:05:58;4.37;;;0.80;;
5167;SDS011;2603;48.918;8.980;2023-11-19T15:08:25;4.70;;;1.03;;
5167;SDS011;2603;48.918;8.980;2023-11-19T15:10:53;1.87;;;0.80;;
5167;SDS011;2603;48.918;8.980;2023-11-19T15:13:22;1.70;;;0.70;;
5167;SDS011;2603;48.918;8.980;2023-11-19T15:15:49;2.27;;;1.30;;
5167;SDS011;2603;48.918;8.980;2023-11-19T15:18:17;1.87;;;0.87;;
5167;SDS011;2603;48.918;8.980;2023-11-19T15:20:45;1.20;;;0.60;;
5167;SDS011;2603;48.918;8.980;2023-11-19T15:23:12;1.10;;;0.53;;
5167;SDS011;2603;48.918;8.980;2023-11-19T15:25:40;3.73;;;1.00;;
5167;SDS011;2603;48.918;8.980;2023-11-19T15:28:08;6.23;;;0.90;;